Time;durP1;ratioP1;P1;durP2;ratioP2;P2;SDS_P1;SDS_P2;PMS_P1;PMS_P2;Temp;Humidity;BMP_temperature;BMP_pressure;BME280_temperature;BME280_humidity;BME280_pressure;Samples;Min_cycle;Max_cycle;Signal;HPM_P1;HPM_P2
2022/01/07 00:00:51;;;;;;;14.55;5.03;;;3.70;99.90;;;;;;6247916;22;20312;-81
2022/01/07 00:03:18;;;;;;;25.75;6.15;;;3.70;99.90;;;;;;6247476;22;20007;-82
2022/01/07 00:05:44;;;;;;;18.02;5.00;;;3.70;99.90;;;;;;6247742;22;20055;-80
2022/01/07 00:08:10;;;;;;;16.77;4.32;;;3.70;99.90;;;;;;6247097;22;20019;-80
2022/01/07 00:10:36;;;;;;;17.33;4.97;;;3.70;99.90;;;;;;6248298;22;20004;-79
2022/01/07 00:13:02;;;;;;;16.20;4.90;;;3.70;99.90;;;;;;6276018;22;20083;-80
2022/01/07 00:15:28;;;;;;;14.48;5.15;;;3.70;99.90;;;;;;6248288;22;20314;-80
2022/01/07 00:17:54;;;;;;;20.50;4.93;;;4.20;99.90;;;;;;6243274;22;20087;-79
2022/01/07 00:20:20;;;;;;;15.57;5.60;;;3.70;99.90;;;;;;6244322;23;20047;-80
2022/01/07 00:22:47;;;;;;;14.27;5.18;;;3.60;99.90;;;;;;6242375;23;20012;-80
2022/01/07 00:25:14;;;;;;;14.95;5.38;;;3.60;99.90;;;;;;6217211;23;20321;-79
2022/01/07 00:27:40;;;;;;;20.55;5.80;;;3.60;99.90;;;;;;6218221;23;20326;-80
2022/01/07 00:30:08;;;;;;;20.08;5.95;;;3.60;99.90;;;;;;6218527;23;20019;-80
2022/01/07 00:32:35;;;;;;;24.23;6.05;;;3.60;99.90;;;;;;6267603;22;20012;-79
2022/01/07 00:35:00;;;;;;;20.42;5.90;;;3.50;99.90;;;;;;6243083;23;20016;-80
2022/01/07 00:37:26;;;;;;;15.77;5.95;;;3.60;99.90;;;;;;6242457;23;20019;-79
2022/01/07 00:39:52;;;;;;;14.40;5.43;;;3.50;99.90;;;;;;6217344;23;20055;-79
2022/01/07 00:42:18;;;;;;;15.70;5.28;;;3.40;99.90;;;;;;6216959;23;20331;-79
2022/01/07 00:44:44;;;;;;;17.67;5.88;;;3.40;99.90;;;;;;6243193;23;20039;-79
2022/01/07 00:47:10;;;;;;;22.42;6.32;;;3.30;99.90;;;;;;6242060;23;20089;-79
2022/01/07 00:49:35;;;;;;;17.35;6.30;;;3.30;99.90;;;;;;6218294;23;20016;-80
2022/01/07 00:52:01;;;;;;;17.52;5.97;;;3.30;99.90;;;;;;6243360;23;20012;-80
2022/01/07 00:54:27;;;;;;;17.33;6.60;;;3.30;99.90;;;;;;6242354;23;20016;-80
2022/01/07 00:56:53;;;;;;;24.20;7.07;;;3.20;99.90;;;;;;6243487;23;20012;-80
2022/01/07 00:59:19;;;;;;;21.92;6.15;;;3.20;99.90;;;;;;6242824;23;20019;-80
2022/01/07 01:01:46;;;;;;;16.98;5.95;;;3.10;99.90;;;;;;6242510;23;20286;-80
2022/01/07 01:04:12;;;;;;;21.05;6.97;;;3.10;99.90;;;;;;6217539;23;20389;-80
2022/01/07 01:06:40;;;;;;;16.60;6.05;;;3.10;99.90;;;;;;6243152;23;20109;-80
2022/01/07 01:09:07;;;;;;;17.60;6.07;;;3.50;99.90;;;;;;6217267;23;20016;-80
2022/01/07 01:11:33;;;;;;;18.17;6.13;;;3.00;99.90;;;;;;6217607;23;20012;-80
2022/01/07 01:13:58;;;;;;;18.10;6.72;;;3.00;99.90;;;;;;6242479;23;20534;-80
2022/01/07 01:16:24;;;;;;;16.13;6.05;;;3.70;99.90;;;;;;6241889;23;20106;-80
2022/01/07 01:18:50;;;;;;;20.10;6.45;;;2.90;99.90;;;;;;6241795;23;20074;-79
2022/01/07 01:21:15;;;;;;;23.45;7.53;;;2.90;99.90;;;;;;6242574;23;20030;-80
2022/01/07 01:23:45;;;;;;;18.05;6.90;;;2.90;99.90;;;;;;6242115;23;20166;-80
2022/01/07 01:26:13;;;;;;;21.73;7.05;;;2.90;99.90;;;;;;6242439;23;20015;-80
2022/01/07 01:28:39;;;;;;;18.05;6.93;;;2.90;99.90;;;;;;6244599;23;20008;-80
2022/01/07 01:31:05;;;;;;;19.10;7.13;;;2.80;99.90;;;;;;6241636;23;20032;-79
2022/01/07 01:33:31;;;;;;;19.30;7.07;;;2.80;99.90;;;;;;6242620;23;20020;-80
2022/01/07 01:35:57;;;;;;;18.35;6.75;;;3.20;99.90;;;;;;6242258;23;20012;-80
2022/01/07 01:38:22;;;;;;;18.48;7.22;;;2.80;99.90;;;;;;6242313;23;20693;-80
2022/01/07 01:40:48;;;;;;;17.77;6.70;;;2.80;99.90;;;;;;6242169;23;20063;-80
2022/01/07 01:43:14;;;;;;;17.63;7.03;;;2.70;99.90;;;;;;6242021;23;20095;-80
2022/01/07 01:45:39;;;;;;;20.15;7.53;;;2.80;99.90;;;;;;6241691;23;20012;-80
2022/01/07 01:48:05;;;;;;;17.48;6.40;;;2.70;99.90;;;;;;6241847;23;20023;-80
2022/01/07 01:50:31;;;;;;;22.50;7.13;;;2.80;99.90;;;;;;6241215;23;20544;-80
2022/01/07 01:52:57;;;;;;;20.45;7.30;;;2.80;99.90;;;;;;6216610;23;20004;-80
2022/01/07 01:55:25;;;;;;;16.13;5.78;;;2.70;99.90;;;;;;6242665;23;20016;-80
2022/01/07 01:57:52;;;;;;;21.15;6.97;;;2.70;99.90;;;;;;6217188;23;20050;-80
2022/01/07 02:00:23;;;;;;;19.83;7.57;;;2.70;99.90;;;;;;6242323;23;20015;-80
2022/01/07 02:02:49;;;;;;;16.02;7.40;;;2.60;99.90;;;;;;6241070;23;20012;-80
2022/01/07 02:05:15;;;;;;;17.30;7.32;;;3.10;99.90;;;;;;6217046;23;20437;-80
2022/01/07 02:07:41;;;;;;;15.75;7.10;;;3.10;99.90;;;;;;6242430;23;20800;-79
2022/01/07 02:10:13;;;;;;;16.98;6.95;;;2.70;99.90;;;;;;6241490;23;20020;-80
2022/01/07 02:12:40;;;;;;;17.05;7.22;;;2.70;99.90;;;;;;6242060;23;20012;-80
2022/01/07 02:15:07;;;;;;;15.57;7.22;;;2.70;99.90;;;;;;6216510;23;20012;-80
2022/01/07 02:17:33;;;;;;;21.60;7.97;;;2.60;99.90;;;;;;6216007;23;20024;-80
2022/01/07 02:19:59;;;;;;;17.20;6.63;;;2.60;99.90;;;;;;6241894;23;20016;-80
2022/01/07 02:22:25;;;;;;;18.10;7.88;;;2.70;99.90;;;;;;6242157;23;20095;-80
2022/01/07 02:24:52;;;;;;;16.00;7.97;;;2.70;99.90;;;;;;6241703;23;20012;-80
2022/01/07 02:27:17;;;;;;;20.77;8.18;;;2.70;99.90;;;;;;6216709;23;20057;-80
2022/01/07 02:29:47;;;;;;;22.63;8.80;;;2.60;99.90;;;;;;6241354;23;20087;-80
2022/01/07 02:32:13;;;;;;;19.08;7.43;;;2.70;99.90;;;;;;6240981;23;20431;-80
2022/01/07 02:34:39;;;;;;;15.95;7.40;;;2.60;99.90;;;;;;6216493;23;20016;-80
2022/01/07 02:37:05;;;;;;;18.98;8.02;;;2.60;99.90;;;;;;6216470;23;20012;-79
2022/01/07 02:39:30;;;;;;;16.25;7.43;;;2.70;99.90;;;;;;6241395;23;20019;-80
2022/01/07 02:41:56;;;;;;;16.45;8.05;;;2.70;99.90;;;;;;6242000;23;20035;-81
2022/01/07 02:44:22;;;;;;;18.67;8.02;;;2.70;99.90;;;;;;6216275;23;20202;-80
2022/01/07 02:46:48;;;;;;;17.25;6.03;;;2.70;99.90;;;;;;6241103;23;20335;-80
2022/01/07 02:49:16;;;;;;;14.13;7.40;;;2.70;99.90;;;;;;6241560;23;20097;-80
2022/01/07 02:51:43;;;;;;;15.68;8.90;;;2.70;99.90;;;;;;6242166;23;20023;-81
2022/01/07 02:54:09;;;;;;;17.45;8.40;;;2.80;99.90;;;;;;6240568;23;20012;-80
2022/01/07 02:56:35;;;;;;;13.48;7.25;;;2.70;99.90;;;;;;6216265;23;20012;-81
2022/01/07 02:59:02;;;;;;;13.05;7.80;;;2.70;99.90;;;;;;6241042;23;20746;-80
2022/01/07 03:01:28;;;;;;;15.45;7.00;;;2.70;99.90;;;;;;6240603;23;20499;-80
2022/01/07 03:03:54;;;;;;;20.70;8.30;;;2.70;99.90;;;;;;6214784;23;20047;-80
2022/01/07 03:06:21;;;;;;;16.58;8.68;;;2.70;99.90;;;;;;6240427;23;20226;-80
2022/01/07 03:08:48;;;;;;;16.63;8.18;;;2.60;99.90;;;;;;6215656;23;20019;-80
2022/01/07 03:11:14;;;;;;;13.95;8.20;;;2.90;99.90;;;;;;6239556;23;20495;-80
2022/01/07 03:13:40;;;;;;;15.40;8.38;;;2.70;99.90;;;;;;6241163;23;20027;-80
2022/01/07 03:16:05;;;;;;;15.02;8.43;;;2.70;99.90;;;;;;6240629;23;20020;-81
2022/01/07 03:18:31;;;;;;;17.15;8.68;;;2.70;99.90;;;;;;6240821;23;20028;-80
2022/01/07 03:20:58;;;;;;;19.63;8.55;;;2.70;99.90;;;;;;6241439;23;20016;-81
2022/01/07 03:23:24;;;;;;;15.15;8.55;;;2.60;99.90;;;;;;6241648;23;20012;-81
2022/01/07 03:25:50;;;;;;;16.17;8.70;;;2.60;99.90;;;;;;6242768;23;20023;-81
2022/01/07 03:28:16;;;;;;;14.15;8.18;;;2.60;99.90;;;;;;6218674;23;20004;-81
2022/01/07 03:30:42;;;;;;;14.73;8.85;;;2.80;99.90;;;;;;6244751;23;20031;-81
2022/01/07 03:33:09;;;;;;;16.55;8.30;;;3.10;99.90;;;;;;6243105;23;20480;-81
2022/01/07 03:35:34;;;;;;;13.57;7.78;;;2.70;99.90;;;;;;6246006;23;20013;-81
2022/01/07 03:38:01;;;;;;;19.33;8.00;;;2.70;99.90;;;;;;6218740;23;20020;-82
2022/01/07 03:40:27;;;;;;;15.52;8.88;;;2.70;99.90;;;;;;6218547;23;20313;-81
2022/01/07 03:42:53;;;;;;;17.17;9.60;;;2.70;99.90;;;;;;6243505;23;20017;-80
2022/01/07 03:45:20;;;;;;;13.65;8.80;;;2.70;99.90;;;;;;6243549;23;20020;-81
2022/01/07 03:47:46;;;;;;;17.25;7.63;;;2.70;99.90;;;;;;6242603;23;20090;-81
2022/01/07 03:50:15;;;;;;;15.82;9.10;;;2.70;99.90;;;;;;6243591;23;20134;-81
2022/01/07 03:52:41;;;;;;;15.63;9.07;;;2.70;99.90;;;;;;6242101;23;20437;-80
2022/01/07 03:55:13;;;;;;;16.30;9.55;;;2.70;99.90;;;;;;6241544;23;20019;-81
2022/01/07 03:57:39;;;;;;;19.23;9.90;;;2.70;99.90;;;;;;6216788;23;20020;-81
2022/01/07 04:00:32;;;;;;;14.70;9.40;;;2.70;99.90;;;;;;6242307;23;20019;-81
2022/01/07 04:03:03;;;;;;;15.43;9.25;;;2.70;99.90;;;;;;6216786;23;20368;-80
2022/01/07 04:05:29;;;;;;;21.77;9.98;;;3.50;99.90;;;;;;6243050;23;20091;-81
2022/01/07 04:07:55;;;;;;;18.30;9.68;;;2.80;99.90;;;;;;6241923;23;20118;-81
2022/01/07 04:10:21;;;;;;;16.60;9.77;;;2.80;99.90;;;;;;6242888;23;20054;-81
2022/01/07 04:12:48;;;;;;;13.23;8.13;;;2.80;99.90;;;;;;6216897;23;20016;-80
2022/01/07 04:15:14;;;;;;;14.55;9.63;;;2.80;99.90;;;;;;6217771;23;20012;-81
2022/01/07 04:17:41;;;;;;;15.18;8.93;;;2.80;99.90;;;;;;6216727;23;20016;-81
2022/01/07 04:20:09;;;;;;;16.50;9.40;;;2.80;99.90;;;;;;6243202;23;20027;-81
2022/01/07 04:22:36;;;;;;;14.70;8.68;;;2.80;99.90;;;;;;6242856;23;20004;-81
2022/01/07 04:25:05;;;;;;;12.90;9.10;;;2.80;99.90;;;;;;6217999;23;20016;-80
2022/01/07 04:27:32;;;;;;;16.83;8.13;;;2.80;99.90;;;;;;6217889;23;20016;-80
2022/01/07 04:29:58;;;;;;;15.98;8.93;;;2.80;99.90;;;;;;6217853;23;20079;-81
2022/01/07 04:32:23;;;;;;;14.95;6.85;;;3.50;99.90;;;;;;6243585;23;20367;-81
2022/01/07 04:34:50;;;;;;;15.35;9.70;;;2.80;99.90;;;;;;6190847;23;20091;-81
2022/01/07 04:37:16;;;;;;;12.88;8.10;;;2.90;99.90;;;;;;6217959;23;20012;-80
2022/01/07 04:39:42;;;;;;;13.82;9.02;;;2.80;99.90;;;;;;6195121;23;20381;-81
2022/01/07 04:42:23;;;;;;;16.73;9.20;;;2.80;99.90;;;;;;6194967;23;20435;-81
2022/01/07 04:44:49;;;;;;;13.60;8.98;;;3.10;99.90;;;;;;6195309;23;20020;-81
2022/01/07 04:47:15;;;;;;;13.23;8.82;;;3.70;99.90;;;;;;6195120;23;20407;-81
2022/01/07 04:49:40;;;;;;;15.98;8.50;;;2.90;99.90;;;;;;6220336;23;20345;-81
2022/01/07 04:52:07;;;;;;;16.80;9.27;;;3.00;99.90;;;;;;6219756;23;20329;-81
2022/01/07 04:54:33;;;;;;;17.02;9.75;;;2.90;99.90;;;;;;6220106;23;20039;-81
2022/01/07 04:56:59;;;;;;;17.23;9.65;;;2.90;99.90;;;;;;6217499;23;20008;-81
2022/01/07 04:59:25;;;;;;;16.73;9.90;;;2.90;99.90;;;;;;6192078;23;20074;-81
2022/01/07 05:01:51;;;;;;;15.38;9.02;;;2.90;99.90;;;;;;6217233;23;20027;-81
2022/01/07 05:04:16;;;;;;;16.73;9.85;;;3.00;99.90;;;;;;6217313;23;20016;-81
2022/01/07 05:06:45;;;;;;;14.63;9.93;;;2.90;99.90;;;;;;6217985;23;20016;-81
2022/01/07 05:09:13;;;;;;;14.32;9.48;;;3.00;99.90;;;;;;6217120;23;20022;-81
2022/01/07 05:11:39;;;;;;;17.95;9.70;;;3.10;99.90;;;;;;6218134;23;20016;-81
2022/01/07 05:14:05;;;;;;;12.25;8.48;;;3.00;99.90;;;;;;6218548;23;20023;-81
2022/01/07 05:16:31;;;;;;;16.13;8.75;;;3.90;99.90;;;;;;6217699;23;20008;-81
2022/01/07 05:18:57;;;;;;;18.27;9.85;;;3.10;99.90;;;;;;6218081;23;20105;-81
2022/01/07 05:21:23;;;;;;;15.57;9.30;;;3.10;99.90;;;;;;6243568;23;20108;-81
2022/01/07 05:23:49;;;;;;;14.25;9.85;;;3.70;99.90;;;;;;6217213;23;20119;-81
2022/01/07 05:26:15;;;;;;;16.60;9.52;;;3.10;99.90;;;;;;6218899;23;20016;-81
2022/01/07 05:28:40;;;;;;;13.00;8.80;;;3.10;99.90;;;;;;6242161;23;20012;-82
2022/01/07 05:31:06;;;;;;;13.20;9.40;;;3.00;99.90;;;;;;6192199;23;20625;-81
2022/01/07 05:33:32;;;;;;;13.65;9.70;;;3.10;99.90;;;;;;6217806;23;20046;-82
2022/01/07 05:35:57;;;;;;;14.18;8.85;;;3.10;99.90;;;;;;6217477;23;20091;-81
2022/01/07 05:38:23;;;;;;;17.55;9.73;;;3.10;99.90;;;;;;6216141;23;20016;-81
2022/01/07 05:40:49;;;;;;;18.10;9.48;;;3.10;99.90;;;;;;6217428;23;20062;-81
2022/01/07 05:43:14;;;;;;;15.95;9.25;;;3.10;99.90;;;;;;6216877;23;20016;-81
2022/01/07 05:45:44;;;;;;;14.35;9.30;;;3.10;99.90;;;;;;6216990;23;20019;-81
2022/01/07 05:48:10;;;;;;;14.98;9.13;;;3.20;99.90;;;;;;6241607;23;20483;-81
2022/01/07 05:50:36;;;;;;;17.98;9.48;;;3.10;99.90;;;;;;6216957;23;20282;-81
2022/01/07 05:53:01;;;;;;;18.85;9.27;;;3.20;99.90;;;;;;6216770;23;20056;-81
2022/01/07 05:55:27;;;;;;;13.00;8.88;;;3.10;99.90;;;;;;6217535;23;20016;-81
2022/01/07 05:57:53;;;;;;;16.88;9.48;;;3.60;99.90;;;;;;6191859;23;20059;-81
2022/01/07 06:00:18;;;;;;;13.90;9.25;;;3.20;99.90;;;;;;6216934;23;20016;-81
2022/01/07 06:02:44;;;;;;;15.20;9.38;;;3.10;99.90;;;;;;6216511;23;20403;-81
2022/01/07 06:05:11;;;;;;;17.42;9.23;;;3.20;99.90;;;;;;6216884;23;20115;-81
2022/01/07 06:07:37;;;;;;;16.40;9.73;;;3.60;99.90;;;;;;6192059;23;20019;-81
2022/01/07 06:10:03;;;;;;;13.77;9.75;;;3.20;99.90;;;;;;6217445;23;20016;-80
2022/01/07 06:12:29;;;;;;;16.20;8.77;;;3.20;99.90;;;;;;6242713;23;20040;-80
2022/01/07 06:14:55;;;;;;;14.93;9.07;;;3.60;99.90;;;;;;6217087;23;20023;-80
2022/01/07 06:17:20;;;;;;;13.98;8.70;;;3.20;99.90;;;;;;6221286;22;20077;-81
2022/01/07 06:19:46;;;;;;;22.70;10.05;;;3.30;99.90;;;;;;6246377;22;20099;-80
2022/01/07 06:22:12;;;;;;;15.25;8.82;;;3.20;99.90;;;;;;6222461;22;20020;-81
2022/01/07 06:24:38;;;;;;;19.95;10.00;;;3.20;99.90;;;;;;6246362;22;20396;-81
2022/01/07 06:27:04;;;;;;;13.35;8.32;;;3.50;99.90;;;;;;6246919;22;20003;-81
2022/01/07 06:29:29;;;;;;;11.80;8.27;;;3.30;99.90;;;;;;6246717;22;20087;-80
2022/01/07 06:31:55;;;;;;;20.38;8.65;;;3.20;99.90;;;;;;6221025;22;20042;-80
2022/01/07 06:34:20;;;;;;;14.60;9.07;;;3.30;99.90;;;;;;6221019;22;20432;-80
2022/01/07 06:40:17;;;;;;;13.82;8.55;;;2.70;99.90;;;;;;6119864;23;20026;-79
2022/01/07 06:42:45;;;;;;;12.23;8.63;;;4.20;99.90;;;;;;6094362;23;20049;-80
2022/01/07 06:45:13;;;;;;;13.50;9.00;;;4.60;99.90;;;;;;6094553;23;20021;-81
2022/01/07 06:47:39;;;;;;;11.82;8.05;;;3.50;99.90;;;;;;6094105;23;20310;-79
2022/01/07 06:50:06;;;;;;;12.73;8.68;;;3.40;99.90;;;;;;6071060;23;20024;-78
2022/01/07 06:52:32;;;;;;;15.23;9.52;;;3.40;99.90;;;;;;6094943;23;20044;-78
2022/01/07 06:54:58;;;;;;;12.68;9.23;;;3.30;99.90;;;;;;6094941;23;20477;-79
2022/01/07 06:57:24;;;;;;;12.18;9.00;;;3.30;99.90;;;;;;6095411;23;20028;-79
2022/01/07 06:59:49;;;;;;;13.43;9.43;;;3.30;99.90;;;;;;6096389;23;20451;-80
2022/01/07 07:02:15;;;;;;;12.90;9.02;;;3.30;99.90;;;;;;6072041;23;20022;-78
2022/01/07 07:04:41;;;;;;;13.10;9.18;;;3.30;99.90;;;;;;6095977;23;20022;-79
2022/01/07 07:07:06;;;;;;;12.38;9.77;;;3.30;99.90;;;;;;6121961;23;20495;-79
2022/01/07 07:09:32;;;;;;;14.05;10.15;;;3.30;99.90;;;;;;6072913;23;20029;-80
2022/01/07 07:11:58;;;;;;;14.90;10.40;;;3.30;99.90;;;;;;6097119;23;20391;-80
2022/01/07 07:14:23;;;;;;;15.02;9.82;;;3.30;99.90;;;;;;6097244;23;20399;-80
2022/01/07 07:16:49;;;;;;;18.92;9.95;;;3.30;99.90;;;;;;6152346;22;20095;-79
2022/01/07 07:19:15;;;;;;;17.73;10.52;;;3.30;99.90;;;;;;6242020;23;20020;-79
2022/01/07 07:21:41;;;;;;;17.63;11.10;;;3.30;99.90;;;;;;6242279;23;20078;-79
2022/01/07 07:24:06;;;;;;;17.15;10.27;;;3.40;99.90;;;;;;6242562;23;20012;-79
2022/01/07 07:26:32;;;;;;;15.65;11.00;;;3.40;99.90;;;;;;6268190;22;20087;-80
2022/01/07 07:28:58;;;;;;;17.88;10.70;;;3.50;99.90;;;;;;6268626;22;20012;-77
2022/01/07 07:31:24;;;;;;;14.55;10.35;;;3.50;99.90;;;;;;6240918;23;20016;-80
2022/01/07 07:36:27;;;;;;;17.40;11.32;;;3.50;99.90;;;;;;6241042;23;20383;-79
2022/01/07 07:39:03;;;;;;;18.50;11.40;;;4.40;99.90;;;;;;6243410;23;20016;-79
2022/01/07 07:41:30;;;;;;;21.25;12.40;;;3.60;99.90;;;;;;6215979;23;20016;-80
2022/01/07 07:43:57;;;;;;;19.67;12.75;;;3.60;99.90;;;;;;6215653;23;20016;-81
2022/01/07 07:46:24;;;;;;;20.48;12.68;;;3.50;99.90;;;;;;6241009;23;20012;-80
2022/01/07 07:48:51;;;;;;;19.60;12.13;;;3.60;99.90;;;;;;6241165;23;20050;-79
2022/01/07 07:51:18;;;;;;;21.60;13.10;;;3.80;99.90;;;;;;6242312;23;20036;-78
2022/01/07 07:53:44;;;;;;;21.73;12.95;;;3.60;99.90;;;;;;6240718;23;20012;-79
2022/01/07 07:56:12;;;;;;;17.63;13.27;;;3.70;99.90;;;;;;6216505;23;20332;-74
2022/01/07 07:58:38;;;;;;;20.80;13.60;;;3.70;99.90;;;;;;6215822;23;20396;-79
2022/01/07 08:01:05;;;;;;;23.55;13.63;;;3.70;99.90;;;;;;6242280;23;20784;-75
2022/01/07 08:03:30;;;;;;;23.75;13.82;;;3.70;99.90;;;;;;6239026;23;20103;-76
2022/01/07 08:05:56;;;;;;;28.55;13.90;;;3.70;99.90;;;;;;6241002;23;20016;-76
2022/01/07 08:08:21;;;;;;;25.05;14.32;;;3.80;99.90;;;;;;6241911;23;20077;-76
2022/01/07 08:10:54;;;;;;;21.40;14.13;;;3.80;99.90;;;;;;6268405;22;20031;-79
2022/01/07 08:13:30;;;;;;;27.63;14.38;;;3.80;99.90;;;;;;6217519;23;20024;-77
2022/01/07 08:16:04;;;;;;;24.40;14.25;;;3.90;99.90;;;;;;6242552;23;20103;-76
2022/01/07 08:18:38;;;;;;;25.83;15.33;;;3.90;99.90;;;;;;6242899;23;20013;-77
2022/01/07 08:21:11;;;;;;;19.42;13.00;;;4.00;99.90;;;;;;6217872;23;20059;-79
2022/01/07 08:23:39;;;;;;;28.73;15.02;;;4.00;99.90;;;;;;6241856;23;20016;-76
2022/01/07 08:26:09;;;;;;;28.20;15.70;;;4.00;99.90;;;;;;6242486;23;20458;-78
2022/01/07 08:28:48;;;;;;;26.88;14.95;;;4.00;99.90;;;;;;6217648;23;20012;-78
2022/01/07 08:31:27;;;;;;;27.05;15.27;;;4.00;99.90;;;;;;6242482;23;20089;-78
2022/01/07 08:36:38;;;;;;;29.90;14.73;;;4.10;99.90;;;;;;6242662;23;20302;-77
2022/01/07 08:39:07;;;;;;;28.48;14.90;;;4.20;99.90;;;;;;6216606;23;20020;-83
2022/01/07 08:41:34;;;;;;;31.35;16.05;;;4.20;99.90;;;;;;6242567;23;20400;-78
2022/01/07 08:44:00;;;;;;;24.67;15.73;;;4.20;99.90;;;;;;6242900;23;20436;-80
2022/01/07 08:46:26;;;;;;;27.80;15.65;;;4.30;99.90;;;;;;6242268;23;20046;-80
2022/01/07 08:48:52;;;;;;;32.80;15.63;;;4.80;99.90;;;;;;6221250;23;20039;-80
2022/01/07 08:51:18;;;;;;;32.38;15.50;;;4.60;99.90;;;;;;6247280;23;20012;-81
2022/01/07 08:53:43;;;;;;;24.20;16.42;;;4.30;99.90;;;;;;6271761;22;20023;-78
2022/01/07 08:56:09;;;;;;;27.38;15.60;;;4.90;99.90;;;;;;6246635;23;20111;-78
2022/01/07 08:58:35;;;;;;;26.58;15.82;;;4.30;99.90;;;;;;6243931;23;20051;-78
2022/01/07 09:01:01;;;;;;;29.00;15.30;;;4.60;99.90;;;;;;6241852;23;20095;-78
2022/01/07 09:03:27;;;;;;;27.52;16.77;;;4.30;99.90;;;;;;6241397;23;20022;-79
2022/01/07 09:05:53;;;;;;;35.72;16.85;;;4.30;99.90;;;;;;6243159;23;20092;-78
2022/01/07 09:08:18;;;;;;;31.70;16.90;;;4.40;99.90;;;;;;6240561;23;20087;-78
2022/01/07 09:10:45;;;;;;;29.08;16.73;;;4.40;99.90;;;;;;6242189;23;20008;-78
2022/01/07 09:13:11;;;;;;;29.15;16.77;;;4.50;99.90;;;;;;6241859;23;20023;-78
2022/01/07 09:15:37;;;;;;;29.85;17.15;;;4.80;99.90;;;;;;6241733;23;20121;-79
2022/01/07 09:18:09;;;;;;;33.47;17.50;;;4.50;99.90;;;;;;6216167;22;20016;-79
2022/01/07 09:20:45;;;;;;;33.88;17.15;;;4.60;99.90;;;;;;6241692;23;20095;-75
2022/01/07 09:23:12;;;;;;;31.95;17.13;;;4.60;99.90;;;;;;6214760;23;20012;-78
2022/01/07 09:25:38;;;;;;;27.17;16.40;;;4.60;99.90;;;;;;6215932;23;20020;-76
2022/01/07 09:28:05;;;;;;;35.33;17.58;;;4.60;99.90;;;;;;6242000;23;20062;-77
2022/01/07 09:30:32;;;;;;;25.40;16.00;;;4.70;99.90;;;;;;6239993;23;20448;-77
2022/01/07 09:32:58;;;;;;;29.27;17.60;;;4.70;99.90;;;;;;6213679;23;20023;-76
2022/01/07 09:35:26;;;;;;;32.08;16.88;;;4.70;99.90;;;;;;6239940;23;20016;-77
2022/01/07 09:37:52;;;;;;;38.55;16.35;;;4.70;99.90;;;;;;6238654;23;20012;-77
2022/01/07 09:40:18;;;;;;;30.88;15.52;;;4.70;99.90;;;;;;6239355;23;20350;-77
2022/01/07 09:43:01;;;;;;;28.02;14.50;;;4.80;99.90;;;;;;6239047;23;20012;-78
2022/01/07 09:45:29;;;;;;;30.75;15.43;;;4.80;99.90;;;;;;6242541;22;20372;-77
2022/01/07 09:47:55;;;;;;;33.33;15.77;;;4.90;99.90;;;;;;6239002;23;20013;-77
2022/01/07 09:50:23;;;;;;;28.15;15.88;;;4.90;99.90;;;;;;6239318;23;20012;-78
2022/01/07 09:52:49;;;;;;;32.65;17.02;;;5.10;99.90;;;;;;6213475;23;20012;-79
2022/01/07 09:55:15;;;;;;;25.90;14.90;;;4.90;99.90;;;;;;6240166;23;20162;-78
2022/01/07 09:57:41;;;;;;;32.80;15.10;;;4.90;99.90;;;;;;6239598;23;20019;-77
2022/01/07 10:00:08;;;;;;;25.67;14.88;;;4.90;99.90;;;;;;6239122;23;20027;-78
2022/01/07 10:02:34;;;;;;;30.50;12.50;;;4.80;99.90;;;;;;6239902;23;20327;-78
2022/01/07 10:05:16;;;;;;;24.10;11.85;;;4.80;99.90;;;;;;6239022;23;20012;-78
2022/01/07 10:07:43;;;;;;;21.27;10.90;;;4.80;99.90;;;;;;6213173;23;20424;-76
2022/01/07 10:10:10;;;;;;;19.15;11.52;;;4.80;99.90;;;;;;6213651;23;20046;-78
2022/01/07 10:12:55;;;;;;;17.73;10.05;;;4.90;99.90;;;;;;6239808;23;20008;-84
2022/01/07 10:15:36;;;;;;;14.50;7.38;;;4.80;99.90;;;;;;6239670;23;20047;-78
2022/01/07 10:18:12;;;;;;;14.07;6.57;;;4.80;99.90;;;;;;6214679;22;20078;-78
2022/01/07 10:20:41;;;;;;;10.77;4.88;;;4.70;99.90;;;;;;6241112;23;20091;-79
2022/01/07 10:23:15;;;;;;;6.47;2.95;;;4.70;99.90;;;;;;6241092;23;20019;-78
2022/01/07 10:25:45;;;;;;;8.82;3.33;;;4.70;99.90;;;;;;6215840;23;20425;-76
2022/01/07 10:28:19;;;;;;;6.53;3.00;;;4.60;99.90;;;;;;6215400;23;20047;-78
2022/01/07 10:30:46;;;;;;;5.68;3.40;;;4.60;99.90;;;;;;6239758;23;20155;-77
2022/01/07 10:33:39;;;;;;;5.75;3.42;;;4.60;99.90;;;;;;6239455;22;20008;-77
2022/01/07 10:36:10;;;;;;;5.47;3.63;;;4.50;99.90;;;;;;6212978;23;20496;-80
2022/01/07 10:38:55;;;;;;;7.30;3.95;;;4.80;99.90;;;;;;6238941;23;20008;-80
2022/01/07 10:41:22;;;;;;;5.78;3.90;;;4.60;99.90;;;;;;6216747;23;20008;-81
2022/01/07 10:43:48;;;;;;;9.00;3.55;;;4.70;99.90;;;;;;6216023;23;20019;-80
2022/01/07 10:46:19;;;;;;;8.52;3.47;;;4.80;99.90;;;;;;6241012;23;20435;-80
2022/01/07 10:48:53;;;;;;;9.07;3.03;;;4.90;99.90;;;;;;6241146;23;20088;-81
2022/01/07 10:51:27;;;;;;;5.15;2.70;;;4.90;99.90;;;;;;6241609;23;20047;-80
2022/01/07 10:54:02;;;;;;;7.45;2.33;;;5.00;99.90;;;;;;6215969;23;20052;-80
2022/01/07 10:56:38;;;;;;;6.03;2.13;;;5.20;99.90;;;;;;6241643;23;20020;-81
2022/01/07 10:59:10;;;;;;;6.40;2.22;;;4.80;99.90;;;;;;6242069;23;20062;-81
2022/01/07 11:01:38;;;;;;;2.33;1.65;;;4.70;99.90;;;;;;6244023;23;20050;-80
2022/01/07 11:04:08;;;;;;;10.05;2.42;;;4.60;99.90;;;;;;6186670;23;20028;-80
2022/01/07 11:06:35;;;;;;;7.30;2.10;;;4.70;99.90;;;;;;6211739;23;20012;-80
2022/01/07 11:09:02;;;;;;;7.20;2.53;;;4.90;99.90;;;;;;6209963;23;20021;-81
2022/01/07 11:11:30;;;;;;;11.32;2.55;;;4.70;99.90;;;;;;6209568;23;20009;-76
2022/01/07 11:14:01;;;;;;;6.18;2.17;;;4.70;99.90;;;;;;6209745;23;20024;-77
2022/01/07 11:16:26;;;;;;;7.20;2.40;;;4.60;99.90;;;;;;6209758;23;20025;-78
2022/01/07 11:18:56;;;;;;;5.80;2.30;;;4.70;99.90;;;;;;6214751;23;20435;-82
2022/01/07 11:21:22;;;;;;;10.98;2.40;;;4.70;99.90;;;;;;6216976;23;20026;-75
2022/01/07 11:23:48;;;;;;;7.20;2.35;;;4.60;99.90;;;;;;6214893;23;20016;-79
2022/01/07 11:26:16;;;;;;;7.85;2.63;;;4.60;99.90;;;;;;6214613;23;20012;-79
2022/01/07 11:28:57;;;;;;;8.15;2.67;;;4.70;99.90;;;;;;6214960;23;20058;-78
2022/01/07 11:31:23;;;;;;;9.48;3.58;;;4.70;99.90;;;;;;6214683;23;20093;-78
2022/01/07 11:34:18;;;;;;;10.90;4.75;;;4.80;99.90;;;;;;6215128;23;20043;-77
2022/01/07 11:36:44;;;;;;;10.55;5.30;;;4.90;99.90;;;;;;6215413;23;20020;-78
2022/01/07 11:39:09;;;;;;;11.55;4.70;;;5.00;99.90;;;;;;6189987;23;20022;-78
2022/01/07 11:41:50;;;;;;;13.52;5.78;;;5.00;99.90;;;;;;6214941;23;20012;-77
2022/01/07 11:44:29;;;;;;;8.65;4.95;;;5.10;99.90;;;;;;6215874;23;20031;-77
2022/01/07 11:47:24;;;;;;;12.20;5.72;;;5.20;99.90;;;;;;6214012;23;20023;-76
2022/01/07 11:50:04;;;;;;;16.55;6.78;;;5.20;99.90;;;;;;6216160;23;20115;-79
2022/01/07 11:52:35;;;;;;;15.35;6.30;;;5.30;99.90;;;;;;6215479;23;20016;-77
2022/01/07 11:55:20;;;;;;;21.30;7.75;;;5.40;99.90;;;;;;6215872;23;20038;-75
2022/01/07 11:57:51;;;;;;;19.23;6.68;;;5.50;99.90;;;;;;6241086;23;20016;-79
2022/01/07 12:00:53;;;;;;;18.77;7.05;;;5.70;99.90;;;;;;6192550;23;20309;-77
2022/01/07 12:03:42;;;;;;;15.88;6.78;;;5.60;99.90;;;;;;6215992;23;20095;-75
2022/01/07 12:06:23;;;;;;;20.08;6.45;;;5.70;99.90;;;;;;6216426;23;20012;-76
2022/01/07 12:09:12;;;;;;;19.13;7.22;;;5.70;99.90;;;;;;6215382;23;20008;-76
2022/01/07 12:11:43;;;;;;;17.92;6.43;;;5.70;99.90;;;;;;6215784;23;20023;-76
2022/01/07 12:14:18;;;;;;;19.00;7.22;;;5.70;99.90;;;;;;6216553;23;20023;-76
2022/01/07 12:16:49;;;;;;;18.17;6.97;;;5.60;99.90;;;;;;6216873;23;20027;-83
2022/01/07 12:19:18;;;;;;;20.75;8.02;;;5.60;99.90;;;;;;6210840;23;20025;-78
2022/01/07 12:21:49;;;;;;;18.02;7.20;;;5.60;99.90;;;;;;6211426;23;20016;-79
2022/01/07 12:24:24;;;;;;;20.83;7.75;;;5.60;99.90;;;;;;6211257;23;20442;-80
2022/01/07 12:27:02;;;;;;;20.90;7.97;;;5.70;99.90;;;;;;6211950;23;20008;-80
2022/01/07 12:29:32;;;;;;;23.10;7.55;;;5.80;99.90;;;;;;6212467;23;20055;-79
2022/01/07 12:31:58;;;;;;;17.27;7.38;;;5.80;99.90;;;;;;6211267;23;20330;-78
2022/01/07 12:34:35;;;;;;;15.45;6.95;;;5.90;99.90;;;;;;6211263;23;20372;-78
2022/01/07 12:37:06;;;;;;;19.42;7.20;;;5.80;99.90;;;;;;6210277;23;20017;-78
2022/01/07 12:39:34;;;;;;;12.40;5.80;;;5.90;99.90;;;;;;6186140;23;20052;-80
2022/01/07 12:41:59;;;;;;;12.05;5.63;;;5.80;99.90;;;;;;6186142;23;20427;-80
2022/01/07 12:44:32;;;;;;;15.52;5.15;;;5.80;99.90;;;;;;6210586;23;20016;-81
2022/01/07 12:46:58;;;;;;;13.45;4.90;;;6.60;99.90;;;;;;6211863;23;20015;-80
2022/01/07 12:49:41;;;;;;;11.00;4.20;;;5.70;99.90;;;;;;6212654;23;20079;-78
2022/01/07 12:52:15;;;;;;;10.65;3.47;;;5.60;99.90;;;;;;6210944;23;20087;-78
2022/01/07 12:55:18;;;;;;;13.65;3.80;;;5.60;99.90;;;;;;6210202;23;20070;-84
2022/01/07 12:58:22;;;;;;;12.85;3.65;;;5.50;99.90;;;;;;6212189;23;20019;-83
2022/01/07 13:01:20;;;;;;;8.98;3.75;;;5.50;99.90;;;;;;6211711;23;20440;-83